Time,TemperatureF,DewpointF,PressureIn,WindDirection,WindDirectionDegrees,WindSpeedMPH,WindSpeedGustMPH,Humidity,HourlyPrecipIn,Conditions,Clouds,dailyrainin,SoftwareType,DateUTC
2013-03-17 00:03:00,39.1,31.9,29.97,SSW,199,0.0,0.0,75,0.00,,---,0.00,VWS V14.01,2013-03-17 07:03:00,
2013-03-17 00:08:00,39.1,31.9,29.96,SW,219,0.0,0.0,75,0.00,,---,0.00,VWS V14.01,2013-03-17 07:08:00,
2013-03-17 00:13:00,39.1,32.2,29.97,SE,146,0.0,0.0,76,0.00,,---,0.00,VWS V14.01,2013-03-17 07:13:00,
2013-03-17 00:18:00,39.1,32.2,29.96,South,182,0.0,0.0,76,0.00,,---,0.00,VWS V14.01,2013-03-17 07:18:00,
2013-03-17 00:23:00,39.1,32.2,29.97,SW,223,0.0,0.0,76,0.00,,---,0.00,VWS V14.01,2013-03-17 07:23:00,
2013-03-17 00:28:00,38.9,32.0,29.97,South,175,0.0,0.0,76,0.00,,---,0.00,VWS V14.01,2013-03-17 07:28:00,
2013-03-17 00:33:00,38.9,32.0,29.97,SSE,167,0.0,0.0,76,0.00,,---,0.00,VWS V14.01,2013-03-17 07:33:00,
2013-03-17 00:38:00,38.9,32.0,29.97,South,179,0.0,0.0,76,0.00,,---,0.00,VWS V14.01,2013-03-17 07:38:00,
2013-03-17 00:44:00,38.9,32.0,29.97,South,180,0.0,0.0,76,0.00,,---,0.00,VWS V14.01,2013-03-17 07:44:00,
2013-03-17 00:49:00,38.9,32.0,29.97,SSW,206,0.0,0.0,76,0.00,,---,0.00,VWS V14.01,2013-03-17 07:49:00,
2013-03-17 00:54:00,38.9,32.0,29.98,SSW,202,0.0,0.0,76,0.00,,---,0.00,VWS V14.01,2013-03-17 07:54:00,
2013-03-17 00:59:00,38.9,32.0,29.98,SSW,198,0.0,0.0,76,0.00,,---,0.00,VWS V14.01,2013-03-17 07:59:00,
2013-03-17 01:04:00,38.9,32.0,29.98,SSW,204,0.0,0.0,76,0.00,,---,0.00,VWS V14.01,2013-03-17 08:04:00,
2013-03-17 01:09:00,38.9,32.0,29.98,SW,228,0.0,0.0,76,0.00,,---,0.00,VWS V14.01,2013-03-17 08:09:00,
2013-03-17 01:14:00,38.9,32.0,29.99,South,178,0.0,0.0,76,0.00,,---,0.00,VWS V14.01,2013-03-17 08:14:00,
2013-03-17 01:19:00,39.1,32.2,29.99,SW,232,0.0,0.0,76,0.00,,---,0.00,VWS V14.01,2013-03-17 08:19:00,
2013-03-17 01:24:00,39.1,32.2,29.99,SSE,159,0.0,0.0,76,0.00,,---,0.00,VWS V14.01,2013-03-17 08:24:00,
2013-03-17 01:29:00,39.1,32.2,29.99,ESE,118,0.0,0.0,76,0.00,,---,0.00,VWS V14.01,2013-03-17 08:29:00,
2013-03-17 01:34:00,39.1,32.2,29.99,South,190,0.0,0.0,76,0.00,,---,0.00,VWS V14.01,2013-03-17 08:34:00,
2013-03-17 01:39:00,39.1,32.2,29.99,SE,142,0.0,0.0,76,0.00,,---,0.00,VWS V14.01,2013-03-17 08:39:00,
2013-03-17 01:45:00,39.1,32.2,29.99,SE,145,0.0,0.0,76,0.00,,---,0.00,VWS V14.01,2013-03-17 08:45:00,
2013-03-17 01:50:00,39.1,32.2,30.00,SE,139,0.0,0.0,76,0.00,,---,0.00,VWS V14.01,2013-03-17 08:50:00,
2013-03-17 01:55:00,39.1,32.2,29.99,ESE,123,0.0,0.0,76,0.00,,---,0.00,VWS V14.01,2013-03-17 08:55:00,
2013-03-17 02:00:00,39.1,32.2,29.99,SE,138,0.0,0.0,76,0.00,,---,0.00,VWS V14.01,2013-03-17 09:00:00,
2013-03-17 02:05:00,38.9,32.0,30.00,SE,138,0.0,0.0,76,0.00,,---,0.00,VWS V14.01,2013-03-17 09:05:00,
2013-03-17 02:10:00,38.9,32.0,30.00,SE,128,0.0,0.0,76,0.00,,---,0.00,VWS V14.01,2013-03-17 09:10:00,
2013-03-17 02:15:00,38.9,32.0,30.00,SE,136,0.0,0.0,76,0.00,,---,0.00,VWS V14.01,2013-03-17 09:15:00,
2013-03-17 02:20:00,38.8,31.9,30.00,SE,129,0.0,0.0,76,0.00,,---,0.00,VWS V14.01,2013-03-17 09:20:00,
2013-03-17 02:25:00,38.8,31.9,30.00,SE,130,0.0,0.0,76,0.00,,---,0.00,VWS V14.01,2013-03-17 09:25:00,
2013-03-17 02:30:00,38.8,31.9,30.01,SSE,159,0.0,0.0,76,0.00,,---,0.00,VWS V14.01,2013-03-17 09:30:00,
2013-03-17 02:35:00,38.8,31.9,30.01,SE,124,0.0,0.0,76,0.00,,---,0.00,VWS V14.01,2013-03-17 09:35:00,
2013-03-17 02:40:00,38.8,31.9,30.01,SE,139,0.0,0.0,76,0.00,,---,0.00,VWS V14.01,2013-03-17 09:40:00,
2013-03-17 02:45:00,38.8,31.9,30.01,SE,133,0.0,0.0,76,0.00,,---,0.00,VWS V14.01,2013-03-17 09:45:00,
2013-03-17 02:50:00,38.8,31.9,30.01,SSE,153,0.0,0.0,76,0.00,,---,0.00,VWS V14.01,2013-03-17 09:50:00,
2013-03-17 02:55:00,38.8,31.9,30.01,SE,146,0.0,0.0,76,0.00,,---,0.00,VWS V14.01,2013-03-17 09:55:00,
2013-03-17 03:00:00,38.6,31.7,30.02,SE,146,0.0,0.0,76,0.00,,---,0.00,VWS V14.01,2013-03-17 10:00:00,
2013-03-17 03:06:00,38.6,31.7,30.02,SE,129,0.0,0.0,76,0.00,,---,0.00,VWS V14.01,2013-03-17 10:06:00,
2013-03-17 03:11:00,38.6,32.0,30.01,SE,125,0.0,0.0,77,0.00,,---,0.00,VWS V14.01,2013-03-17 10:11:00,
2013-03-17 03:16:00,38.5,31.9,30.02,SSE,147,0.0,0.0,77,0.00,,---,0.00,VWS V14.01,2013-03-17 10:16:00,
2013-03-17 03:21:00,38.5,31.9,30.02,ESE,102,0.0,0.0,77,0.00,,---,0.00,VWS V14.01,2013-03-17 10:21:00,
2013-03-17 03:26:00,38.5,31.9,30.02,SSE,154,0.0,0.0,77,0.00,,---,0.00,VWS V14.01,2013-03-17 10:26:00,
2013-03-17 03:31:00,38.5,31.9,30.03,South,171,0.0,0.0,77,0.00,,---,0.00,VWS V14.01,2013-03-17 10:31:00,
2013-03-17 03:37:00,38.5,31.9,30.03,SE,127,0.0,0.0,77,0.00,,---,0.00,VWS V14.01,2013-03-17 10:37:00,
2013-03-17 03:42:00,38.5,31.9,30.04,SE,140,0.0,0.0,77,0.00,,---,0.00,VWS V14.01,2013-03-17 10:42:00,
2013-03-17 03:47:00,38.5,31.9,30.03,South,171,0.0,0.0,77,0.00,,---,0.00,VWS V14.01,2013-03-17 10:47:00,
2013-03-17 03:52:00,38.6,32.0,30.03,SW,223,0.0,0.0,77,0.00,,---,0.00,VWS V14.01,2013-03-17 10:52:00,
2013-03-17 03:58:00,38.6,32.0,30.03,SE,140,0.0,0.0,77,0.00,,---,0.00,VWS V14.01,2013-03-17 10:58:00,
2013-03-17 04:03:00,38.6,31.7,30.03,SSW,198,0.0,0.0,76,0.00,,---,0.00,VWS V14.01,2013-03-17 11:03:00,
2013-03-17 04:08:00,38.8,31.9,30.03,SE,137,0.0,0.0,76,0.00,,---,0.00,VWS V14.01,2013-03-17 11:08:00,
2013-03-17 04:13:00,38.8,31.9,30.04,SSE,155,0.0,0.0,76,0.00,,---,0.00,VWS V14.01,2013-03-17 11:13:00,
2013-03-17 04:18:00,38.8,31.9,30.04,SSW,194,0.0,0.0,76,0.00,,---,0.00,VWS V14.01,2013-03-17 11:18:00,
2013-03-17 04:23:00,38.8,31.9,30.04,South,171,0.0,0.0,76,0.00,,---,0.00,VWS V14.01,2013-03-17 11:23:00,
2013-03-17 04:28:00,38.9,32.0,30.04,SE,146,0.0,0.0,76,0.00,,---,0.00,VWS V14.01,2013-03-17 11:28:00,
2013-03-17 04:33:00,38.9,31.7,30.05,SE,140,0.0,0.0,75,0.00,,---,0.00,VWS V14.01,2013-03-17 11:33:00,
2013-03-17 04:38:00,39.1,31.9,30.05,South,173,0.0,0.0,75,0.00,,---,0.00,VWS V14.01,2013-03-17 11:38:00,
2013-03-17 04:43:00,39.2,31.6,30.05,South,174,0.0,0.0,74,0.00,,---,0.00,VWS V14.01,2013-03-17 11:43:00,
2013-03-17 04:48:00,39.2,31.6,30.05,South,171,0.0,0.0,74,0.00,,---,0.00,VWS V14.01,2013-03-17 11:48:00,
2013-03-17 04:53:00,39.2,31.6,30.05,SE,142,0.0,0.0,74,0.00,,---,0.00,VWS V14.01,2013-03-17 11:53:00,
2013-03-17 04:58:00,39.2,31.3,30.05,South,177,0.0,0.0,73,0.00,,---,0.00,VWS V14.01,2013-03-17 11:58:00,
2013-03-17 05:03:00,39.3,31.4,30.06,South,183,0.0,0.0,73,0.00,,---,0.00,VWS V14.01,2013-03-17 12:03:00,
2013-03-17 05:08:00,39.3,31.4,30.06,South,173,0.0,0.0,73,0.00,,---,0.00,VWS V14.01,2013-03-17 12:08:00,
2013-03-17 05:13:00,39.5,31.6,30.06,South,175,0.0,0.0,73,0.00,,---,0.00,VWS V14.01,2013-03-17 12:13:00,
2013-03-17 05:18:00,39.5,31.2,30.06,South,173,0.0,0.0,72,0.00,,---,0.00,VWS V14.01,2013-03-17 12:18:00,
2013-03-17 05:23:00,39.5,31.2,30.06,SSE,161,0.0,0.0,72,0.00,,---,0.00,VWS V14.01,2013-03-17 12:23:00,
2013-03-17 05:29:00,39.5,31.2,30.07,SSW,195,0.0,0.0,72,0.00,,---,0.00,VWS V14.01,2013-03-17 12:29:00,
2013-03-17 05:34:00,39.5,31.2,30.07,SSE,161,0.0,0.0,72,0.00,,---,0.00,VWS V14.01,2013-03-17 12:34:00,
2013-03-17 05:39:00,39.5,31.2,30.07,SSW,212,0.0,0.0,72,0.00,,---,0.00,VWS V14.01,2013-03-17 12:39:00,
2013-03-17 05:44:00,39.5,31.2,30.07,South,179,0.0,0.0,72,0.00,,---,0.00,VWS V14.01,2013-03-17 12:44:00,
2013-03-17 05:49:00,39.5,30.9,30.07,SE,138,0.0,0.0,71,0.00,,---,0.00,VWS V14.01,2013-03-17 12:49:00,
2013-03-17 05:54:00,39.5,30.9,30.08,SSE,159,0.0,0.0,71,0.00,,---,0.00,VWS V14.01,2013-03-17 12:54:00,
2013-03-17 05:59:00,39.5,30.9,30.08,South,180,0.0,0.0,71,0.00,,---,0.00,VWS V14.01,2013-03-17 12:59:00,
2013-03-17 06:04:00,39.5,30.9,30.08,SE,140,0.0,0.0,71,0.00,,---,0.00,VWS V14.01,2013-03-17 13:04:00,
2013-03-17 06:09:00,39.5,30.9,30.08,SSW,211,0.0,0.0,71,0.00,,---,0.00,VWS V14.01,2013-03-17 13:09:00,
2013-03-17 06:14:00,39.5,30.9,30.08,SE,143,0.0,0.0,71,0.00,,---,0.00,VWS V14.01,2013-03-17 13:14:00,
2013-03-17 06:19:00,39.5,30.9,30.08,SSE,167,0.0,0.0,71,0.00,,---,0.00,VWS V14.01,2013-03-17 13:19:00,
2013-03-17 06:24:00,39.5,30.9,30.08,SSW,196,0.0,0.0,71,0.00,,---,0.00,VWS V14.01,2013-03-17 13:24:00,
2013-03-17 06:29:00,39.5,30.9,30.08,South,175,0.0,0.0,71,0.00,,---,0.00,VWS V14.01,2013-03-17 13:29:00,
2013-03-17 06:34:00,39.5,30.9,30.09,SSE,150,0.0,0.0,71,0.00,,---,0.00,VWS V14.01,2013-03-17 13:34:00,
2013-03-17 06:39:00,39.5,30.9,30.09,SE,145,0.0,0.0,71,0.00,,---,0.00,VWS V14.01,2013-03-17 13:39:00,
2013-03-17 06:44:00,39.5,30.9,30.09,SSW,202,0.0,0.0,71,0.00,,---,0.00,VWS V14.01,2013-03-17 13:44:00,
2013-03-17 06:49:00,39.5,30.9,30.09,South,175,0.0,0.0,71,0.00,,---,0.00,VWS V14.01,2013-03-17 13:49:00,
2013-03-17 06:55:00,39.5,30.9,30.09,SSW,195,0.0,0.0,71,0.00,,---,0.00,VWS V14.01,2013-03-17 13:55:00,
2013-03-17 07:00:00,39.5,30.9,30.10,SSE,158,0.0,0.0,71,0.00,,---,0.00,VWS V14.01,2013-03-17 14:00:00,
2013-03-17 07:05:00,39.3,30.7,30.10,WSW,258,0.0,0.0,71,0.00,,---,0.00,VWS V14.01,2013-03-17 14:05:00,
2013-03-17 07:10:00,39.3,31.0,30.11,WSW,250,0.0,0.0,72,0.00,,---,0.00,VWS V14.01,2013-03-17 14:10:00,
2013-03-17 07:15:00,39.3,31.0,30.10,WSW,250,0.0,0.0,72,0.00,,---,0.00,VWS V14.01,2013-03-17 14:15:00,
2013-03-17 07:20:00,39.3,31.0,30.11,WSW,250,0.0,0.0,72,0.00,,---,0.00,VWS V14.01,2013-03-17 14:20:00,
2013-03-17 07:25:00,39.3,31.0,30.10,WSW,250,0.0,0.0,72,0.00,,---,0.00,VWS V14.01,2013-03-17 14:25:00,
2013-03-17 07:30:00,39.3,31.0,30.10,South,185,0.0,0.0,72,0.00,,---,0.00,VWS V14.01,2013-03-17 14:30:00,
2013-03-17 07:35:00,39.3,31.0,30.11,SSW,194,0.0,0.0,72,0.00,,---,0.00,VWS V14.01,2013-03-17 14:35:00,
2013-03-17 07:40:00,39.3,31.0,30.11,SSW,202,0.0,0.0,72,0.00,,---,0.00,VWS V14.01,2013-03-17 14:40:00,
2013-03-17 07:45:00,39.3,31.0,30.11,South,172,0.0,0.0,72,0.00,,---,0.00,VWS V14.01,2013-03-17 14:45:00,
2013-03-17 07:50:00,39.3,31.0,30.11,SSE,156,0.0,0.0,72,0.00,,---,0.00,VWS V14.01,2013-03-17 14:50:00,
2013-03-17 07:55:00,39.3,31.0,30.11,SE,136,0.0,0.0,72,0.00,,---,0.00,VWS V14.01,2013-03-17 14:55:00,
2013-03-17 08:01:00,39.3,31.0,30.11,SE,142,0.0,0.0,72,0.00,,---,0.00,VWS V14.01,2013-03-17 15:01:00,
2013-03-17 08:06:00,39.3,31.0,30.12,South,190,0.0,0.0,72,0.00,,---,0.00,VWS V14.01,2013-03-17 15:06:00,
2013-03-17 08:11:00,39.3,31.0,30.12,South,171,0.0,0.0,72,0.00,,---,0.00,VWS V14.01,2013-03-17 15:11:00,
2013-03-17 08:16:00,39.5,30.9,30.12,SSW,201,0.0,0.0,71,0.00,,---,0.00,VWS V14.01,2013-03-17 15:16:00,
2013-03-17 08:21:00,39.5,30.9,30.12,SW,217,0.0,0.0,71,0.00,,---,0.00,VWS V14.01,2013-03-17 15:21:00,
2013-03-17 08:26:00,39.5,30.5,30.13,South,184,0.0,0.0,70,0.00,,---,0.00,VWS V14.01,2013-03-17 15:26:00,
2013-03-17 08:31:00,39.5,30.5,30.13,SSE,164,0.0,0.0,70,0.00,,---,0.00,VWS V14.01,2013-03-17 15:31:00,
2013-03-17 08:36:00,39.5,30.2,30.13,SSW,192,0.0,0.0,69,0.00,,---,0.00,VWS V14.01,2013-03-17 15:36:00,
2013-03-17 08:41:00,39.5,30.2,30.14,SSE,153,0.0,0.0,69,0.00,,---,0.00,VWS V14.01,2013-03-17 15:41:00,
2013-03-17 08:46:00,39.3,30.0,30.14,SE,138,0.0,0.0,69,0.00,,---,0.00,VWS V14.01,2013-03-17 15:46:00,
2013-03-17 08:51:00,39.3,30.0,30.14,SSW,194,0.0,0.0,69,0.00,,---,0.00,VWS V14.01,2013-03-17 15:51:00,
2013-03-17 08:57:00,39.3,30.0,30.14,SSW,211,0.0,0.0,69,0.00,,---,0.00,VWS V14.01,2013-03-17 15:57:00,
2013-03-17 09:02:00,39.2,29.9,30.14,SW,223,0.0,0.0,69,0.00,,---,0.00,VWS V14.01,2013-03-17 16:02:00,
2013-03-17 09:07:00,39.2,29.9,30.14,SW,216,0.0,0.0,69,0.00,,---,0.00,VWS V14.01,2013-03-17 16:07:00,
2013-03-17 09:12:00,39.3,30.0,30.15,SW,227,0.0,0.0,69,0.01,,---,0.01,VWS V14.01,2013-03-17 16:12:00,
2013-03-17 09:17:00,39.5,30.2,30.15,SSW,201,0.0,0.0,69,0.01,,---,0.01,VWS V14.01,2013-03-17 16:17:00,
2013-03-17 09:22:00,39.5,29.8,30.15,South,182,0.0,0.0,68,0.01,,---,0.01,VWS V14.01,2013-03-17 16:22:00,
2013-03-17 09:28:00,39.6,29.9,30.16,West,259,0.0,0.0,68,0.01,,---,0.01,VWS V14.01,2013-03-17 16:28:00,
2013-03-17 09:33:00,39.8,30.1,30.16,WSW,257,0.0,0.0,68,0.01,,---,0.01,VWS V14.01,2013-03-17 16:33:00,
2013-03-17 09:38:00,40.1,30.4,30.16,SW,220,0.0,0.0,68,0.01,,---,0.01,VWS V14.01,2013-03-17 16:38:00,
2013-03-17 09:43:00,40.2,30.1,30.16,SW,225,0.0,0.0,67,0.01,,---,0.01,VWS V14.01,2013-03-17 16:43:00,
2013-03-17 09:48:00,40.2,29.8,30.16,WSW,240,0.0,0.0,66,0.01,,---,0.01,VWS V14.01,2013-03-17 16:48:00,
2013-03-17 09:53:00,40.2,29.4,30.16,SW,218,0.0,0.0,65,0.01,,---,0.01,VWS V14.01,2013-03-17 16:53:00,
2013-03-17 09:58:00,40.2,29.4,30.17,SW,215,0.0,0.0,65,0.01,,---,0.01,VWS V14.01,2013-03-17 16:58:00,
2013-03-17 10:03:00,40.3,29.1,30.17,SW,217,0.0,0.0,64,0.01,,---,0.01,VWS V14.01,2013-03-17 17:03:00,
2013-03-17 10:08:00,40.6,29.4,30.16,SSW,195,0.0,0.0,64,0.01,,---,0.01,VWS V14.01,2013-03-17 17:08:00,
2013-03-17 10:13:00,41.1,29.1,30.16,SE,136,0.0,0.0,62,0.01,,---,0.01,VWS V14.01,2013-03-17 17:13:00,
2013-03-17 10:18:00,41.8,29.4,30.16,SSE,156,0.0,0.0,61,0.01,,---,0.01,VWS V14.01,2013-03-17 17:18:00,
2013-03-17 10:23:00,42.2,29.7,30.16,SE,136,0.0,0.0,61,0.01,,---,0.01,VWS V14.01,2013-03-17 17:23:00,
2013-03-17 10:28:00,42.6,28.9,30.16,SE,135,0.0,0.0,58,0.01,,---,0.01,VWS V14.01,2013-03-17 17:28:00,
2013-03-17 10:34:00,42.9,28.3,30.17,South,182,0.0,0.0,56,0.00,,---,0.01,VWS V14.01,2013-03-17 17:34:00,
2013-03-17 10:39:00,43.1,28.5,30.17,South,178,0.0,0.0,56,0.00,,---,0.01,VWS V14.01,2013-03-17 17:39:00,
2013-03-17 10:44:00,43.2,28.1,30.17,WSW,252,0.0,0.0,55,0.00,,---,0.01,VWS V14.01,2013-03-17 17:44:00,
2013-03-17 10:49:00,43.2,27.7,30.17,SW,214,0.0,0.0,54,0.00,,---,0.01,VWS V14.01,2013-03-17 17:49:00,
2013-03-17 10:54:00,43.1,28.0,30.17,SSW,195,0.0,0.0,55,0.00,,---,0.01,VWS V14.01,2013-03-17 17:54:00,
2013-03-17 10:59:00,43.2,28.6,30.17,South,180,0.0,0.0,56,0.00,,---,0.01,VWS V14.01,2013-03-17 17:59:00,
2013-03-17 11:04:00,43.5,28.4,30.18,WSW,245,0.0,0.0,55,0.00,,---,0.01,VWS V14.01,2013-03-17 18:04:00,
2013-03-17 11:09:00,43.5,28.0,30.18,WSW,246,0.0,0.0,54,0.00,,---,0.01,VWS V14.01,2013-03-17 18:09:00,
2013-03-17 11:14:00,43.6,28.1,30.18,South,171,0.0,0.0,54,0.00,,---,0.01,VWS V14.01,2013-03-17 18:14:00,
2013-03-17 11:19:00,43.9,28.4,30.18,WSW,244,0.0,0.0,54,0.00,,---,0.01,VWS V14.01,2013-03-17 18:19:00,
2013-03-17 11:24:00,44.2,28.6,30.18,SSE,148,0.0,0.0,54,0.00,,---,0.01,VWS V14.01,2013-03-17 18:24:00,
2013-03-17 11:29:00,44.3,28.3,30.18,SE,142,0.0,0.0,53,0.00,,---,0.01,VWS V14.01,2013-03-17 18:29:00,
2013-03-17 11:34:00,44.8,28.7,30.17,SSE,160,0.0,0.0,53,0.00,,---,0.01,VWS V14.01,2013-03-17 18:34:00,
2013-03-17 11:39:00,45.4,28.8,30.17,South,179,0.0,0.0,52,0.00,,---,0.01,VWS V14.01,2013-03-17 18:39:00,
2013-03-17 11:44:00,45.7,28.6,30.17,SW,236,0.0,0.0,51,0.00,,---,0.01,VWS V14.01,2013-03-17 18:44:00,
2013-03-17 11:49:00,45.5,28.4,30.17,West,266,0.0,0.0,51,0.00,,---,0.01,VWS V14.01,2013-03-17 18:49:00,
2013-03-17 11:55:00,45.2,28.2,30.17,South,182,0.0,0.0,51,0.00,,---,0.01,VWS V14.01,2013-03-17 18:55:00,
2013-03-17 12:00:00,45.1,28.5,30.17,SSW,213,0.0,0.0,52,0.00,,---,0.01,VWS V14.01,2013-03-17 19:00:00,
2013-03-17 12:05:00,44.8,28.3,30.17,WSW,245,0.0,0.0,52,0.00,,---,0.01,VWS V14.01,2013-03-17 19:05:00,
2013-03-17 12:10:00,44.8,28.7,30.17,South,170,0.0,0.0,53,0.00,,---,0.01,VWS V14.01,2013-03-17 19:10:00,
2013-03-17 12:15:00,45.1,28.5,30.17,South,191,0.0,0.0,52,0.00,,---,0.01,VWS V14.01,2013-03-17 19:15:00,
2013-03-17 12:20:00,45.1,28.1,30.17,SW,228,0.0,0.0,51,0.00,,---,0.01,VWS V14.01,2013-03-17 19:20:00,
2013-03-17 12:25:00,44.9,28.4,30.17,WSW,238,0.0,0.0,52,0.00,,---,0.01,VWS V14.01,2013-03-17 19:25:00,
2013-03-17 12:30:00,44.8,27.8,30.17,SSW,208,0.0,0.0,51,0.00,,---,0.01,VWS V14.01,2013-03-17 19:30:00,
2013-03-17 12:35:00,44.8,28.3,30.17,SW,236,0.0,0.0,52,0.00,,---,0.01,VWS V14.01,2013-03-17 19:35:00,
2013-03-17 12:40:00,45.4,27.9,30.17,SW,224,0.0,0.0,50,0.00,,---,0.01,VWS V14.01,2013-03-17 19:40:00,
2013-03-17 12:45:00,46.2,27.6,30.16,South,186,0.0,0.0,48,0.00,,---,0.01,VWS V14.01,2013-03-17 19:45:00,
2013-03-17 12:50:00,46.8,27.6,30.17,South,171,0.0,0.0,47,0.00,,---,0.01,VWS V14.01,2013-03-17 19:50:00,
2013-03-17 12:55:00,46.7,27.0,30.17,ESE,111,0.0,0.0,46,0.00,,---,0.01,VWS V14.01,2013-03-17 19:55:00,
2013-03-17 13:00:00,47.0,27.3,30.17,SSE,162,0.0,0.0,46,0.00,,---,0.01,VWS V14.01,2013-03-17 20:00:00,
2013-03-17 13:05:00,47.0,27.3,30.16,SW,231,0.0,0.0,46,0.00,,---,0.01,VWS V14.01,2013-03-17 20:05:00,
2013-03-17 13:11:00,47.1,27.4,30.16,SSW,196,0.0,0.0,46,0.00,,---,0.01,VWS V14.01,2013-03-17 20:11:00,
2013-03-17 13:16:00,47.4,27.1,30.16,SE,146,0.0,0.0,45,0.00,,---,0.01,VWS V14.01,2013-03-17 20:16:00,
2013-03-17 13:21:00,47.7,26.3,30.16,SSE,155,0.0,0.0,43,0.00,,---,0.01,VWS V14.01,2013-03-17 20:21:00,
2013-03-17 13:26:00,47.7,26.3,30.16,South,178,0.0,0.0,43,0.00,,---,0.01,VWS V14.01,2013-03-17 20:26:00,
2013-03-17 13:31:00,47.7,25.8,30.16,South,182,0.0,0.0,42,0.00,,---,0.01,VWS V14.01,2013-03-17 20:31:00,
2013-03-17 13:36:00,47.7,26.3,30.16,WSW,240,0.0,0.0,43,0.00,,---,0.01,VWS V14.01,2013-03-17 20:36:00,
2013-03-17 13:41:00,47.6,26.2,30.16,South,179,0.0,0.0,43,0.00,,---,0.01,VWS V14.01,2013-03-17 20:41:00,
2013-03-17 13:47:00,48.0,27.1,30.15,West,277,0.0,0.0,44,0.00,,---,0.01,VWS V14.01,2013-03-17 20:47:00,
2013-03-17 13:51:00,48.5,27.0,30.15,SW,232,0.0,0.0,43,0.00,,---,0.01,VWS V14.01,2013-03-17 20:51:00,
2013-03-17 13:57:00,48.6,26.0,30.15,SSE,167,0.0,0.0,41,0.00,,---,0.01,VWS V14.01,2013-03-17 20:57:00,
2013-03-17 14:02:00,48.8,27.3,30.15,SSW,199,0.0,0.0,43,0.00,,---,0.01,VWS V14.01,2013-03-17 21:02:00,
2013-03-17 14:07:00,48.8,27.3,30.15,SSW,213,0.0,0.0,43,0.00,,---,0.01,VWS V14.01,2013-03-17 21:07:00,
2013-03-17 14:12:00,48.6,27.1,30.15,SSW,202,0.0,0.0,43,0.00,,---,0.01,VWS V14.01,2013-03-17 21:12:00,
2013-03-17 14:17:00,48.9,28.0,30.14,SE,132,0.0,0.0,44,0.00,,---,0.01,VWS V14.01,2013-03-17 21:17:00,
2013-03-17 14:22:00,48.6,27.7,30.14,South,181,0.0,0.0,44,0.00,,---,0.01,VWS V14.01,2013-03-17 21:22:00,
2013-03-17 14:27:00,48.6,28.2,30.14,SSW,205,0.0,0.0,45,0.00,,---,0.01,VWS V14.01,2013-03-17 21:27:00,
2013-03-17 14:32:00,48.8,27.9,30.15,ESE,117,0.0,0.0,44,0.00,,---,0.01,VWS V14.01,2013-03-17 21:32:00,
2013-03-17 14:38:00,48.5,28.1,30.15,SW,235,0.0,0.0,45,0.00,,---,0.01,VWS V14.01,2013-03-17 21:38:00,
2013-03-17 14:43:00,48.3,28.0,30.14,SW,222,0.0,0.0,45,0.00,,---,0.01,VWS V14.01,2013-03-17 21:43:00,
2013-03-17 14:48:00,48.3,28.0,30.14,SSE,153,0.0,0.0,45,0.00,,---,0.01,VWS V14.01,2013-03-17 21:48:00,
2013-03-17 14:53:00,48.5,28.1,30.14,SSE,150,0.0,0.0,45,0.00,,---,0.01,VWS V14.01,2013-03-17 21:53:00,
2013-03-17 14:58:00,48.5,28.7,30.14,WSW,240,0.0,0.0,46,0.00,,---,0.01,VWS V14.01,2013-03-17 21:58:00,
2013-03-17 15:03:00,48.8,27.3,30.15,SSW,211,0.0,0.0,43,0.00,,---,0.01,VWS V14.01,2013-03-17 22:03:00,
2013-03-17 15:08:00,48.9,28.0,30.14,South,169,0.0,0.0,44,0.00,,---,0.01,VWS V14.01,2013-03-17 22:08:00,
2013-03-17 15:13:00,48.6,27.1,30.14,SSW,213,0.0,0.0,43,0.00,,---,0.01,VWS V14.01,2013-03-17 22:13:00,
2013-03-17 15:18:00,47.9,27.0,30.14,SSE,157,0.0,0.0,44,0.00,,---,0.01,VWS V14.01,2013-03-17 22:18:00,
2013-03-17 15:23:00,47.7,27.4,30.14,SW,234,0.0,0.0,45,0.00,,---,0.01,VWS V14.01,2013-03-17 22:23:00,
2013-03-17 15:28:00,47.6,27.3,30.14,SW,224,0.0,0.0,45,0.00,,---,0.01,VWS V14.01,2013-03-17 22:28:00,
2013-03-17 15:33:00,47.4,26.0,30.14,SSW,207,0.0,0.0,43,0.00,,---,0.01,VWS V14.01,2013-03-17 22:33:00,
2013-03-17 15:38:00,47.4,25.5,30.14,South,171,0.0,0.0,42,0.00,,---,0.01,VWS V14.01,2013-03-17 22:38:00,
2013-03-17 15:43:00,47.3,26.0,30.14,SSW,199,0.0,0.0,43,0.00,,---,0.01,VWS V14.01,2013-03-17 22:43:00,
2013-03-17 15:49:00,47.1,26.3,30.14,SSW,200,0.0,0.0,44,0.00,,---,0.01,VWS V14.01,2013-03-17 22:49:00,
2013-03-17 15:54:00,47.0,27.3,30.15,South,172,0.0,0.0,46,0.00,,---,0.01,VWS V14.01,2013-03-17 22:54:00,
2013-03-17 15:59:00,46.8,27.1,30.15,SW,215,0.0,0.0,46,0.00,,---,0.01,VWS V14.01,2013-03-17 22:59:00,
2013-03-17 16:04:00,46.4,27.8,30.15,WSW,244,0.0,0.0,48,0.00,,---,0.01,VWS V14.01,2013-03-17 23:04:00,
2013-03-17 16:09:00,46.1,26.5,30.15,South,176,0.0,0.0,46,0.00,,---,0.01,VWS V14.01,2013-03-17 23:09:00,
2013-03-17 16:14:00,45.7,25.6,30.15,WSW,248,0.0,0.0,45,0.00,,---,0.01,VWS V14.01,2013-03-17 23:14:00,
2013-03-17 16:19:00,45.5,27.0,30.15,SSW,205,0.0,0.0,48,0.00,,---,0.01,VWS V14.01,2013-03-17 23:19:00,
2013-03-17 16:24:00,45.7,28.1,30.15,SSW,210,0.0,0.0,50,0.00,,---,0.01,VWS V14.01,2013-03-17 23:24:00,
2013-03-17 16:29:00,45.8,26.7,30.15,WSW,255,0.0,0.0,47,0.00,,---,0.01,VWS V14.01,2013-03-17 23:29:00,
2013-03-17 16:34:00,46.1,27.5,30.15,WSW,237,0.0,0.0,48,0.00,,---,0.01,VWS V14.01,2013-03-17 23:34:00,
2013-03-17 16:39:00,46.2,27.6,30.15,WSW,252,0.0,0.0,48,0.00,,---,0.01,VWS V14.01,2013-03-17 23:39:00,
2013-03-17 16:44:00,46.0,28.9,30.15,WNW,299,0.0,0.0,51,0.00,,---,0.01,VWS V14.01,2013-03-17 23:44:00,
2013-03-17 16:49:00,45.4,29.7,30.16,NW,306,0.0,0.0,54,0.00,,---,0.01,VWS V14.01,2013-03-17 23:49:00,
2013-03-17 16:55:00,44.8,30.5,30.16,NNW,336,0.0,0.0,57,0.00,,---,0.01,VWS V14.01,2013-03-17 23:55:00,
2013-03-17 17:00:00,44.3,31.3,30.16,NW,309,0.0,0.0,60,0.00,,---,0.01,VWS V14.01,2013-03-18 00:00:00,
2013-03-17 17:05:00,44.1,31.5,30.15,SW,225,0.0,0.0,61,0.00,,---,0.01,VWS V14.01,2013-03-18 00:05:00,
2013-03-17 17:10:00,43.9,31.7,30.15,SW,225,0.0,0.0,62,0.00,,---,0.01,VWS V14.01,2013-03-18 00:10:00,
2013-03-17 17:15:00,43.9,32.1,30.16,SW,225,0.0,0.0,63,0.00,,---,0.01,VWS V14.01,2013-03-18 00:15:00,
2013-03-17 17:20:00,43.8,32.8,30.15,SW,225,0.0,0.0,65,0.00,,---,0.01,VWS V14.01,2013-03-18 00:20:00,
2013-03-17 17:25:00,43.5,32.9,30.16,ESE,119,0.0,0.0,66,0.00,,---,0.01,VWS V14.01,2013-03-18 00:25:00,
2013-03-17 17:30:00,43.5,33.3,30.16,SW,223,0.0,0.0,67,0.00,,---,0.01,VWS V14.01,2013-03-18 00:30:00,
2013-03-17 17:35:00,43.3,33.8,30.16,SW,223,0.0,0.0,69,0.00,,---,0.01,VWS V14.01,2013-03-18 00:35:00,
2013-03-17 17:40:00,43.2,33.7,30.16,SW,223,0.0,0.0,69,0.00,,---,0.01,VWS V14.01,2013-03-18 00:40:00,
2013-03-17 17:45:00,43.1,33.6,30.16,North,351,0.0,0.0,69,0.00,,---,0.01,VWS V14.01,2013-03-18 00:45:00,
2013-03-17 17:50:00,42.9,33.4,30.15,WNW,290,0.0,0.0,69,0.00,,---,0.01,VWS V14.01,2013-03-18 00:50:00,
2013-03-17 17:55:00,42.6,32.8,30.15,North,360,0.0,0.0,68,0.00,,---,0.01,VWS V14.01,2013-03-18 00:55:00,
2013-03-17 18:00:00,42.5,32.7,30.15,NNE,24,0.0,0.0,68,0.00,,---,0.01,VWS V14.01,2013-03-18 01:00:00,
2013-03-17 18:06:00,42.5,33.4,30.15,NNE,13,0.0,0.0,70,0.00,,---,0.01,VWS V14.01,2013-03-18 01:06:00,
2013-03-17 18:11:00,42.2,33.1,30.15,NW,323,0.0,0.0,70,0.00,,---,0.01,VWS V14.01,2013-03-18 01:11:00,
2013-03-17 18:16:00,41.9,32.8,30.15,NE,42,0.0,0.0,70,0.00,,---,0.01,VWS V14.01,2013-03-18 01:16:00,
2013-03-17 18:21:00,41.8,33.1,30.15,NNE,28,0.0,0.0,71,0.00,,---,0.01,VWS V14.01,2013-03-18 01:21:00,
2013-03-17 18:26:00,41.6,33.6,30.15,ENE,70,0.0,0.0,73,0.00,,---,0.01,VWS V14.01,2013-03-18 01:26:00,
2013-03-17 18:31:00,41.3,33.3,30.15,NNW,334,0.0,0.0,73,0.00,,---,0.01,VWS V14.01,2013-03-18 01:31:00,
2013-03-17 18:36:00,41.1,33.1,30.15,NNE,28,0.0,0.0,73,0.00,,---,0.01,VWS V14.01,2013-03-18 01:36:00,
2013-03-17 18:41:00,40.9,33.3,30.15,NE,38,0.0,0.0,74,0.00,,---,0.01,VWS V14.01,2013-03-18 01:41:00,
2013-03-17 18:46:00,40.8,33.5,30.15,NE,42,0.0,0.0,75,0.00,,---,0.01,VWS V14.01,2013-03-18 01:46:00,
2013-03-17 18:51:00,40.6,33.3,30.15,NNE,15,0.0,0.0,75,0.00,,---,0.01,VWS V14.01,2013-03-18 01:51:00,
2013-03-17 18:56:00,40.6,33.3,30.15,NE,48,0.0,0.0,75,0.00,,---,0.01,VWS V14.01,2013-03-18 01:56:00,
2013-03-17 19:02:00,40.6,33.3,30.15,NNE,27,0.0,0.0,75,0.00,,---,0.01,VWS V14.01,2013-03-18 02:02:00,
2013-03-17 19:07:00,40.6,33.6,30.16,NE,45,0.0,0.0,76,0.00,,---,0.01,VWS V14.01,2013-03-18 02:07:00,
2013-03-17 19:12:00,40.5,33.5,30.16,NNE,17,0.0,0.0,76,0.00,,---,0.01,VWS V14.01,2013-03-18 02:12:00,
2013-03-17 19:17:00,40.5,33.5,30.15,NNE,17,0.0,0.0,76,0.00,,---,0.01,VWS V14.01,2013-03-18 02:17:00,
2013-03-17 19:22:00,40.5,33.5,30.15,NE,55,0.0,0.0,76,0.00,,---,0.01,VWS V14.01,2013-03-18 02:22:00,
2013-03-17 19:27:00,40.5,33.5,30.16,NE,42,0.0,0.0,76,0.00,,---,0.01,VWS V14.01,2013-03-18 02:27:00,
2013-03-17 19:32:00,40.3,33.3,30.16,NE,43,0.0,0.0,76,0.00,,---,0.01,VWS V14.01,2013-03-18 02:32:00,
2013-03-17 19:37:00,40.2,33.6,30.16,NE,43,0.0,0.0,77,0.00,,---,0.01,VWS V14.01,2013-03-18 02:37:00,
2013-03-17 19:42:00,40.2,33.6,30.16,East,82,0.0,0.0,77,0.00,,---,0.01,VWS V14.01,2013-03-18 02:42:00,
2013-03-17 19:47:00,40.1,33.5,30.16,East,95,0.0,0.0,77,0.00,,---,0.01,VWS V14.01,2013-03-18 02:47:00,
2013-03-17 19:52:00,40.1,33.5,30.16,ESE,105,0.0,0.0,77,0.00,,---,0.01,VWS V14.01,2013-03-18 02:52:00,
2013-03-17 19:57:00,39.9,33.3,30.16,East,80,0.0,0.0,77,0.00,,---,0.01,VWS V14.01,2013-03-18 02:57:00,
2013-03-17 20:02:00,39.9,33.3,30.16,NE,40,0.0,0.0,77,0.00,,---,0.01,VWS V14.01,2013-03-18 03:02:00,
2013-03-17 20:07:00,39.9,33.3,30.16,NE,40,0.0,0.0,77,0.00,,---,0.01,VWS V14.01,2013-03-18 03:07:00,
2013-03-17 20:12:00,39.9,33.3,30.16,ENE,71,0.0,0.0,77,0.00,,---,0.01,VWS V14.01,2013-03-18 03:12:00,
2013-03-17 20:17:00,39.8,33.2,30.16,East,79,0.0,0.0,77,0.00,,---,0.01,VWS V14.01,2013-03-18 03:17:00,
2013-03-17 20:22:00,39.5,32.9,30.16,East,88,0.0,0.0,77,0.00,,---,0.01,VWS V14.01,2013-03-18 03:22:00,
2013-03-17 20:27:00,39.3,32.7,30.16,ENE,71,0.0,0.0,77,0.00,,---,0.01,VWS V14.01,2013-03-18 03:27:00,
2013-03-17 20:32:00,39.3,32.7,30.16,East,91,0.0,0.0,77,0.00,,---,0.01,VWS V14.01,2013-03-18 03:32:00,
2013-03-17 20:38:00,39.3,33.0,30.16,ESE,108,0.0,0.0,78,0.00,,---,0.01,VWS V14.01,2013-03-18 03:38:00,
2013-03-17 20:43:00,39.3,33.0,30.16,East,98,0.0,0.0,78,0.00,,---,0.01,VWS V14.01,2013-03-18 03:43:00,
2013-03-17 20:48:00,39.2,32.9,30.16,East,87,0.0,0.0,78,0.00,,---,0.01,VWS V14.01,2013-03-18 03:48:00,
2013-03-17 20:53:00,39.2,32.9,30.16,ENE,74,0.0,0.0,78,0.00,,---,0.01,VWS V14.01,2013-03-18 03:53:00,
2013-03-17 20:58:00,39.2,32.9,30.16,ESE,105,0.0,0.0,78,0.00,,---,0.01,VWS V14.01,2013-03-18 03:58:00,
2013-03-17 21:00:00,39.2,32.9,30.16,East,96,0.0,0.0,78,0.00,,---,0.01,VWS V14.01,2013-03-18 04:00:00,
2013-03-17 21:01:00,39.2,32.9,30.16,SE,128,0.0,0.0,78,0.00,,---,0.01,VWS V14.01,2013-03-18 04:01:00,
2013-03-17 21:06:00,39.1,32.8,30.16,ESE,105,0.0,0.0,78,0.00,,---,0.01,VWS V14.01,2013-03-18 04:06:00,
2013-03-17 21:11:00,39.1,32.8,30.17,ESE,109,0.0,0.0,78,0.00,,---,0.01,VWS V14.01,2013-03-18 04:11:00,
2013-03-17 21:16:00,39.1,32.8,30.17,SSE,166,0.0,0.0,78,0.00,,---,0.01,VWS V14.01,2013-03-18 04:16:00,
2013-03-17 21:21:00,39.1,33.2,30.17,East,100,0.0,0.0,79,0.00,,---,0.01,VWS V14.01,2013-03-18 04:21:00,
2013-03-17 21:26:00,38.9,33.0,30.17,ESE,110,0.0,0.0,79,0.00,,---,0.01,VWS V14.01,2013-03-18 04:26:00,
2013-03-17 21:31:00,38.9,33.0,30.17,ENE,71,0.0,0.0,79,0.00,,---,0.01,VWS V14.01,2013-03-18 04:31:00,
2013-03-17 21:37:00,38.8,32.9,30.17,East,92,0.0,0.0,79,0.00,,---,0.01,VWS V14.01,2013-03-18 04:37:00,
2013-03-17 21:42:00,38.8,32.9,30.17,East,96,0.0,0.0,79,0.00,,---,0.01,VWS V14.01,2013-03-18 04:42:00,
2013-03-17 21:47:00,38.8,32.9,30.17,East,96,0.0,0.0,79,0.00,,---,0.01,VWS V14.01,2013-03-18 04:47:00,
2013-03-17 21:52:00,38.8,33.2,30.17,East,96,0.0,0.0,80,0.00,,---,0.01,VWS V14.01,2013-03-18 04:52:00,
2013-03-17 21:57:00,38.8,33.2,30.17,ESE,120,0.0,0.0,80,0.00,,---,0.01,VWS V14.01,2013-03-18 04:57:00,
2013-03-17 22:02:00,38.8,33.2,30.17,ESE,121,0.0,0.0,80,0.00,,---,0.01,VWS V14.01,2013-03-18 05:02:00,
2013-03-17 22:07:00,38.8,33.2,30.17,ESE,121,0.0,0.0,80,0.00,,---,0.01,VWS V14.01,2013-03-18 05:07:00,
2013-03-17 22:12:00,38.9,33.3,30.17,SE,131,0.0,0.0,80,0.00,,---,0.01,VWS V14.01,2013-03-18 05:12:00,
2013-03-17 22:17:00,38.9,33.3,30.17,South,174,0.0,0.0,80,0.02,,---,0.03,VWS V14.01,2013-03-18 05:17:00,
2013-03-17 22:22:00,38.9,33.0,30.17,SE,129,0.0,0.0,79,0.04,,---,0.05,VWS V14.01,2013-03-18 05:22:00,
2013-03-17 22:27:00,39.1,32.8,30.17,SSE,148,0.0,0.0,78,0.05,,---,0.06,VWS V14.01,2013-03-18 05:27:00,
2013-03-17 22:32:00,39.2,32.3,30.17,SSW,197,0.0,0.0,76,0.05,,---,0.06,VWS V14.01,2013-03-18 05:32:00,
2013-03-17 22:37:00,39.2,32.0,30.17,South,184,0.0,0.0,75,0.05,,---,0.06,VWS V14.01,2013-03-18 05:37:00,
2013-03-17 22:42:00,39.3,32.0,30.17,SW,226,0.0,0.0,75,0.05,,---,0.06,VWS V14.01,2013-03-18 05:42:00,
2013-03-17 22:47:00,39.5,31.9,30.17,South,187,0.0,0.0,74,0.05,,---,0.06,VWS V14.01,2013-03-18 05:47:00,
2013-03-17 22:52:00,39.5,31.9,30.17,SW,214,0.0,0.0,74,0.05,,---,0.06,VWS V14.01,2013-03-18 05:52:00,
2013-03-17 22:58:00,39.6,31.7,30.17,SW,228,0.0,0.0,73,0.05,,---,0.06,VWS V14.01,2013-03-18 05:58:00,
2013-03-17 23:03:00,39.6,31.7,30.17,SW,215,0.0,0.0,73,0.08,,---,0.09,VWS V14.01,2013-03-18 06:03:00,
2013-03-17 23:08:00,39.6,31.7,30.17,SSW,199,0.0,0.0,73,0.08,,---,0.09,VWS V14.01,2013-03-18 06:08:00,
2013-03-17 23:13:00,39.6,31.7,30.17,SW,225,0.0,0.0,73,0.08,,---,0.09,VWS V14.01,2013-03-18 06:13:00,
2013-03-17 23:18:00,39.6,31.7,30.17,SW,234,0.0,0.0,73,0.08,,---,0.09,VWS V14.01,2013-03-18 06:18:00,
2013-03-17 23:23:00,39.6,31.7,30.17,SSW,207,0.0,0.0,73,0.08,,---,0.09,VWS V14.01,2013-03-18 06:23:00,
2013-03-17 23:28:00,39.6,31.3,30.17,SW,216,0.0,0.0,72,0.09,,---,0.10,VWS V14.01,2013-03-18 06:28:00,
2013-03-17 23:33:00,39.6,31.3,30.16,ESE,123,0.0,0.0,72,0.04,,---,0.10,VWS V14.01,2013-03-18 06:33:00,
2013-03-17 23:38:00,39.6,31.7,30.16,SW,236,0.0,0.0,73,0.04,,---,0.10,VWS V14.01,2013-03-18 06:38:00,
2013-03-17 23:43:00,39.6,31.7,30.16,SSW,204,0.0,0.0,73,0.04,,---,0.10,VWS V14.01,2013-03-18 06:43:00,
2013-03-17 23:48:00,39.6,31.7,30.16,SSE,166,0.0,0.0,73,0.04,,---,0.10,VWS V14.01,2013-03-18 06:48:00,
2013-03-17 23:53:00,39.6,31.7,30.16,South,169,0.0,0.0,73,0.07,,---,0.13,VWS V14.01,2013-03-18 06:53:00,
2013-03-17 23:58:00,39.6,31.7,30.16,SSW,198,0.0,0.0,73,0.07,,---,0.13,VWS V14.01,2013-03-18 06:58:00,